createdAt,value
2023-05-04T00:02:22.833Z,3.33
2023-05-04T00:04:52.659Z,3.58
2023-05-04T00:07:20.390Z,1.60
2023-05-04T00:09:47.289Z,1.48
2023-05-04T00:12:14.211Z,2.22
2023-05-04T00:14:42.658Z,2.75
2023-05-04T00:17:09.789Z,3.10
2023-05-04T00:19:37.229Z,6.38
2023-05-04T00:22:04.219Z,1.23
2023-05-04T00:24:31.163Z,1.75
2023-05-04T00:26:58.009Z,1.15
2023-05-04T00:29:25.106Z,3.50
2023-05-04T00:31:52.314Z,1.27
2023-05-04T00:34:19.238Z,2.40
2023-05-04T00:36:46.540Z,3.10
2023-05-04T00:39:14.040Z,2.85
2023-05-04T00:41:41.306Z,1.73
2023-05-04T00:44:08.417Z,1.55
2023-05-04T00:46:37.762Z,2.13
2023-05-04T00:49:05.674Z,4.13
2023-05-04T00:51:33.268Z,1.85
2023-05-04T00:54:00.430Z,3.38
2023-05-04T00:56:28.993Z,3.22
2023-05-04T00:58:57.920Z,1.88
2023-05-04T01:01:26.068Z,2.97
2023-05-04T01:03:55.148Z,2.60
2023-05-04T01:06:37.061Z,1.90
2023-05-04T01:09:17.434Z,1.92
2023-05-04T01:12:15.909Z,1.52
2023-05-04T01:14:44.153Z,1.85
2023-05-04T01:17:12.079Z,2.22
2023-05-04T01:19:39.122Z,3.47
2023-05-04T01:22:06.129Z,1.50
2023-05-04T01:24:33.666Z,2.13
2023-05-04T01:27:09.460Z,1.85
2023-05-04T01:30:03.789Z,2.42
2023-05-04T01:32:32.439Z,2.55
2023-05-04T01:35:00.163Z,1.73
2023-05-04T01:37:27.209Z,4.05
2023-05-04T01:39:54.199Z,0.95
2023-05-04T01:42:21.193Z,2.20
2023-05-04T01:44:48.145Z,3.35
2023-05-04T01:47:17.437Z,1.85
2023-05-04T01:49:44.355Z,0.98
2023-05-04T01:52:11.334Z,2.47
2023-05-04T01:54:38.233Z,4.75
2023-05-04T01:57:05.154Z,2.30
2023-05-04T01:59:32.029Z,1.00
2023-05-04T02:01:59.159Z,1.90
2023-05-04T02:04:27.050Z,1.23
2023-05-04T02:06:53.965Z,1.45
2023-05-04T02:09:21.291Z,1.27
2023-05-04T02:11:48.390Z,3.95
2023-05-04T02:14:15.486Z,3.85
2023-05-04T02:16:42.425Z,1.58
2023-05-04T02:19:11.954Z,1.02
2023-05-04T02:21:39.384Z,1.30
2023-05-04T02:24:07.003Z,3.55
2023-05-04T02:26:34.496Z,4.20
2023-05-04T02:29:03.410Z,3.28
2023-05-04T02:31:30.299Z,3.83
2023-05-04T02:33:57.231Z,2.70
2023-05-04T02:36:25.281Z,1.98
2023-05-04T02:38:52.233Z,1.30
2023-05-04T02:41:19.131Z,1.83
2023-05-04T02:43:46.059Z,1.27
2023-05-04T02:46:13.003Z,0.93
2023-05-04T02:48:40.163Z,2.28
2023-05-04T02:51:07.143Z,2.28
2023-05-04T02:53:34.271Z,1.92
2023-05-04T02:56:01.362Z,0.98
2023-05-04T02:58:28.326Z,1.98
2023-05-04T03:00:56.117Z,1.55
2023-05-04T03:03:23.148Z,1.88
2023-05-04T03:05:50.037Z,2.00
2023-05-04T03:08:17.001Z,3.08
2023-05-04T03:10:44.269Z,1.48
2023-05-04T03:13:13.458Z,2.25
2023-05-04T03:15:42.201Z,3.78
2023-05-04T03:18:09.330Z,2.53
2023-05-04T03:20:37.502Z,2.00
2023-05-04T03:23:06.841Z,1.92
2023-05-04T03:25:34.124Z,2.15
2023-05-04T03:28:02.156Z,2.10
2023-05-04T03:30:29.060Z,2.80
2023-05-04T03:33:01.618Z,1.75
2023-05-04T03:35:29.884Z,1.80
2023-05-04T03:37:57.957Z,1.35
2023-05-04T03:40:25.121Z,3.92
2023-05-04T03:42:54.529Z,3.03
2023-05-04T03:45:22.999Z,1.33
2023-05-04T03:47:51.516Z,1.90
2023-05-04T03:50:21.664Z,2.45
2023-05-04T03:52:49.846Z,2.28
2023-05-04T03:55:19.490Z,1.30
2023-05-04T03:57:49.673Z,1.50
2023-05-04T04:00:17.466Z,3.72
2023-05-04T04:02:53.946Z,1.67
2023-05-04T04:05:21.223Z,1.80
2023-05-04T04:07:50.161Z,2.88
2023-05-04T04:10:17.188Z,4.10
2023-05-04T04:12:44.213Z,2.42
2023-05-04T04:15:11.947Z,4.07
2023-05-04T04:17:39.133Z,3.28
2023-05-04T04:20:07.029Z,1.48
2023-05-04T04:22:34.219Z,6.43
2023-05-04T04:25:01.598Z,1.70
2023-05-04T04:27:28.577Z,2.30
2023-05-04T04:29:55.708Z,2.17
2023-05-04T04:32:22.833Z,3.63
2023-05-04T04:34:49.883Z,1.67
2023-05-04T04:37:16.892Z,2.92
2023-05-04T04:39:43.960Z,1.58
2023-05-04T04:42:11.724Z,1.92
2023-05-04T04:44:39.315Z,2.30
2023-05-04T04:47:06.708Z,1.95
2023-05-04T04:49:33.700Z,2.70
2023-05-04T04:52:01.847Z,2.13
2023-05-04T04:54:30.213Z,5.82
2023-05-04T04:56:57.198Z,6.20
2023-05-04T04:59:24.947Z,2.75
2023-05-04T05:01:52.135Z,2.97
2023-05-04T05:04:19.994Z,3.60
2023-05-04T05:06:48.927Z,1.67
2023-05-04T05:09:16.017Z,1.73
2023-05-04T05:11:43.106Z,2.47
2023-05-04T05:14:10.371Z,2.13
2023-05-04T05:16:37.448Z,2.47
2023-05-04T05:19:08.895Z,4.05
2023-05-04T05:21:38.276Z,2.53
2023-05-04T05:24:05.804Z,4.03
2023-05-04T05:26:33.962Z,6.15
2023-05-04T05:29:03.449Z,4.75
2023-05-04T05:31:30.665Z,2.15
2023-05-04T05:33:57.741Z,3.47
2023-05-04T05:36:24.681Z,2.75
2023-05-04T05:38:52.513Z,3.63
2023-05-04T05:41:20.469Z,2.88
2023-05-04T05:43:47.973Z,8.95
2023-05-04T05:46:15.036Z,2.40
2023-05-04T05:48:42.933Z,5.25
2023-05-04T05:51:10.089Z,4.03
2023-05-04T05:53:38.926Z,4.03
2023-05-04T05:56:06.177Z,2.88
2023-05-04T05:58:33.817Z,5.45
2023-05-04T06:01:00.988Z,2.38
2023-05-04T06:03:28.204Z,4.40
2023-05-04T06:05:57.226Z,3.85
2023-05-04T06:08:24.375Z,2.30
2023-05-04T06:10:51.618Z,4.63
2023-05-04T06:13:18.705Z,3.65
2023-05-04T06:15:53.210Z,4.45
2023-05-04T06:18:20.902Z,4.90
2023-05-04T06:20:48.163Z,2.58
2023-05-04T06:23:16.600Z,4.40
2023-05-04T06:25:43.561Z,3.50
2023-05-04T06:28:10.489Z,2.65
2023-05-04T06:30:37.445Z,5.18
2023-05-04T06:33:04.679Z,4.10
2023-05-04T06:35:31.677Z,2.50
2023-05-04T06:37:58.873Z,3.60
2023-05-04T06:40:26.770Z,5.28
2023-05-04T06:42:53.880Z,4.03
2023-05-04T06:45:21.022Z,3.10
2023-05-04T06:47:48.143Z,3.30
2023-05-04T06:50:15.649Z,2.92
2023-05-04T06:52:44.139Z,8.65
2023-05-04T06:55:11.434Z,4.45
2023-05-04T06:57:40.935Z,4.03
2023-05-04T07:00:08.612Z,3.67
2023-05-04T07:02:35.955Z,3.53
2023-05-04T07:05:03.980Z,6.78
2023-05-04T07:07:36.340Z,5.25
2023-05-04T07:10:03.733Z,4.75
2023-05-04T07:12:30.826Z,6.78
2023-05-04T07:14:57.775Z,4.45
2023-05-04T07:17:25.581Z,6.32
2023-05-04T07:19:54.836Z,7.28
2023-05-04T07:22:21.999Z,6.93
2023-05-04T07:24:49.167Z,6.43
2023-05-04T07:27:16.132Z,10.68
2023-05-04T07:29:43.889Z,7.57
2023-05-04T07:32:11.314Z,7.05
2023-05-04T07:34:45.796Z,7.53
2023-05-04T07:37:22.548Z,5.95
2023-05-04T07:39:49.628Z,6.50
2023-05-04T07:42:16.811Z,9.48
2023-05-04T07:44:43.803Z,7.72
2023-05-04T07:47:10.810Z,7.68
2023-05-04T07:49:37.766Z,7.97
2023-05-04T07:52:04.933Z,9.38
2023-05-04T07:54:32.124Z,7.15
2023-05-04T07:57:03.432Z,8.65
2023-05-04T07:59:33.770Z,14.80
2023-05-04T08:02:00.962Z,10.43
2023-05-04T08:04:28.067Z,8.20
2023-05-04T08:06:55.044Z,7.75
2023-05-04T08:09:22.016Z,8.73
2023-05-04T08:11:49.917Z,7.78
2023-05-04T08:14:20.574Z,7.05
2023-05-04T08:16:47.801Z,4.55
2023-05-04T08:19:14.912Z,6.65
2023-05-04T08:21:42.010Z,10.10
2023-05-04T08:24:09.149Z,7.25
2023-05-04T08:26:39.668Z,5.55
2023-05-04T08:29:10.944Z,6.22
2023-05-04T08:31:38.112Z,5.38
2023-05-04T08:34:05.626Z,8.85
2023-05-04T08:36:34.351Z,7.53
2023-05-04T08:39:01.472Z,5.90
2023-05-04T08:41:28.653Z,4.47
2023-05-04T08:43:56.012Z,5.78
2023-05-04T08:46:23.171Z,6.03
2023-05-04T08:48:50.475Z,7.90
2023-05-04T08:51:19.106Z,5.05
2023-05-04T08:53:46.750Z,5.57
2023-05-04T08:56:16.477Z,5.28
2023-05-04T08:58:53.465Z,5.32
2023-05-04T09:01:22.267Z,7.18
2023-05-04T09:03:50.167Z,5.30
2023-05-04T09:06:17.518Z,5.43
2023-05-04T09:08:48.887Z,7.10
2023-05-04T09:11:17.052Z,8.20
2023-05-04T09:13:44.004Z,6.05
2023-05-04T09:16:12.247Z,6.30
2023-05-04T09:18:43.534Z,4.90
2023-05-04T09:21:12.998Z,6.00
2023-05-04T09:23:47.472Z,8.27
2023-05-04T09:26:15.154Z,7.20
2023-05-04T09:28:45.215Z,7.13
2023-05-04T09:31:12.373Z,6.05
2023-05-04T09:33:39.434Z,5.65
2023-05-04T09:36:15.032Z,6.22
2023-05-04T09:38:42.290Z,5.30
2023-05-04T09:41:09.952Z,7.20
2023-05-04T09:43:40.551Z,6.10
2023-05-04T09:46:09.071Z,6.83
2023-05-04T09:48:36.359Z,8.75
2023-05-04T09:51:04.316Z,5.43
2023-05-04T09:53:32.614Z,6.38
2023-05-04T09:56:02.201Z,6.43
2023-05-04T09:58:33.193Z,6.57
2023-05-04T10:01:04.514Z,8.65
2023-05-04T10:03:32.660Z,6.80
2023-05-04T10:06:00.807Z,6.43
2023-05-04T10:08:29.012Z,5.38
2023-05-04T10:10:57.356Z,5.32
2023-05-04T10:13:25.298Z,6.78
2023-05-04T10:16:14.325Z,4.57
2023-05-04T10:18:50.201Z,4.72
2023-05-04T10:21:35.907Z,8.15
2023-05-04T10:24:27.151Z,6.00
2023-05-04T10:27:12.214Z,6.68
2023-05-04T10:29:44.260Z,5.22
2023-05-04T10:32:22.240Z,5.45
2023-05-04T10:34:49.760Z,4.93
2023-05-04T10:37:22.033Z,6.07
2023-05-04T10:39:53.657Z,5.45
2023-05-04T10:42:20.925Z,7.65
2023-05-04T10:44:55.333Z,8.70
2023-05-04T10:47:33.383Z,6.85
2023-05-04T10:50:08.434Z,6.32
2023-05-04T10:52:49.438Z,5.75
2023-05-04T10:55:17.450Z,11.23
2023-05-04T10:57:55.995Z,6.10
2023-05-04T11:00:24.481Z,5.72
2023-05-04T11:02:52.488Z,6.65
2023-05-04T11:05:20.497Z,5.38
2023-05-04T11:22:32.512Z,7.65
2023-05-04T11:31:30.735Z,5.60
2023-05-04T11:42:14.470Z,5.65
2023-05-04T11:56:41.170Z,8.30
2023-05-04T12:17:03.515Z,6.55
2023-05-04T12:48:56.025Z,7.15
2023-05-04T13:00:29.311Z,8.13
2023-05-04T14:53:08.373Z,5.70
2023-05-04T16:00:15.588Z,10.50
2023-05-04T16:11:45.598Z,4.57
2023-05-04T16:14:13.233Z,4.63
2023-05-04T16:16:41.474Z,5.07
2023-05-04T16:19:10.872Z,4.35
2023-05-04T16:21:38.757Z,5.28
2023-05-04T16:24:07.744Z,6.03
2023-05-04T16:26:37.084Z,5.15
2023-05-04T16:29:04.203Z,5.70
2023-05-04T16:31:31.230Z,4.38
2023-05-04T16:33:58.535Z,4.43
2023-05-04T16:36:26.739Z,6.50
2023-05-04T16:38:53.818Z,6.85
2023-05-04T16:41:21.141Z,5.45
2023-05-04T16:43:49.275Z,4.28
2023-05-04T16:46:17.031Z,3.83
2023-05-04T16:48:44.014Z,8.00
2023-05-04T16:51:11.004Z,8.05
2023-05-04T16:53:38.030Z,6.68
2023-05-04T16:56:05.320Z,4.13
2023-05-04T16:58:32.448Z,4.72
2023-05-04T17:00:59.601Z,6.65
2023-05-04T17:03:26.761Z,5.82
2023-05-04T17:05:53.870Z,5.65
2023-05-04T17:08:20.819Z,4.85
2023-05-04T17:10:47.851Z,7.47
2023-05-04T17:13:15.085Z,5.10
2023-05-04T17:15:42.052Z,6.82
2023-05-04T17:18:09.126Z,7.80
2023-05-04T17:20:38.565Z,5.03
2023-05-04T17:23:05.805Z,5.75
2023-05-04T17:25:34.089Z,7.30
2023-05-04T17:28:01.126Z,8.98
2023-05-04T17:30:28.093Z,5.07
2023-05-04T17:32:57.402Z,5.90
2023-05-04T17:35:26.212Z,4.32
2023-05-04T17:37:57.984Z,7.07
2023-05-04T17:40:27.745Z,5.90
2023-05-04T17:42:55.660Z,5.18
2023-05-04T17:45:23.006Z,5.10
2023-05-04T17:47:53.289Z,5.05
2023-05-04T17:50:21.319Z,5.85
2023-05-04T17:52:56.194Z,7.50
2023-05-04T17:55:24.623Z,5.40
2023-05-04T17:57:55.293Z,8.13
2023-05-04T18:00:23.067Z,5.13
2023-05-04T18:02:50.213Z,6.68
2023-05-04T18:05:17.198Z,7.03
2023-05-04T18:07:44.106Z,5.43
2023-05-04T18:10:11.422Z,4.90
2023-05-04T18:12:38.614Z,6.03
2023-05-04T18:15:08.466Z,4.07
2023-05-04T18:17:37.868Z,5.15
2023-05-04T18:20:08.247Z,5.43
2023-05-04T18:22:35.568Z,6.22
2023-05-04T18:25:02.937Z,7.97
2023-05-04T18:27:34.336Z,9.93
2023-05-04T18:30:02.123Z,10.05
2023-05-04T18:32:29.220Z,11.68
2023-05-04T18:34:58.080Z,15.55
2023-05-04T18:37:25.599Z,7.88
2023-05-04T18:39:52.631Z,7.57
2023-05-04T18:42:19.673Z,8.98
2023-05-04T18:44:46.898Z,11.82
2023-05-04T18:47:14.182Z,8.13
2023-05-04T18:49:41.365Z,10.20
2023-05-04T18:52:08.481Z,8.63
2023-05-04T18:54:35.390Z,9.60
2023-05-04T18:57:03.461Z,12.07
2023-05-04T18:59:34.016Z,11.63
2023-05-04T19:02:02.223Z,12.18
2023-05-04T19:04:29.703Z,9.40
2023-05-04T19:06:58.008Z,9.48
2023-05-04T19:09:25.769Z,9.95
2023-05-04T19:11:55.879Z,16.83
2023-05-04T19:14:22.776Z,9.65
2023-05-04T19:16:49.925Z,9.15
2023-05-04T19:19:16.821Z,12.98
2023-05-04T19:21:44.022Z,11.23
2023-05-04T19:24:10.900Z,9.98
2023-05-04T19:26:39.073Z,10.93
2023-05-04T19:29:06.019Z,8.45
2023-05-04T19:31:33.082Z,10.02
2023-05-04T19:34:00.089Z,8.48
2023-05-04T19:36:27.590Z,9.82
2023-05-04T19:38:54.678Z,9.80
2023-05-04T19:41:22.096Z,9.48
2023-05-04T19:43:49.020Z,10.02
2023-05-04T19:46:16.031Z,9.18
2023-05-04T19:48:43.778Z,9.13
2023-05-04T19:51:11.181Z,9.02
2023-05-04T19:53:38.273Z,9.90
2023-05-04T19:56:05.404Z,9.80
2023-05-04T19:58:32.385Z,12.00
2023-05-04T20:00:59.516Z,9.55
2023-05-04T20:03:28.221Z,13.32
2023-05-04T20:05:55.732Z,10.73
2023-05-04T20:08:22.646Z,10.82
2023-05-04T20:10:49.528Z,13.57
2023-05-04T20:13:16.517Z,11.75
2023-05-04T20:15:43.521Z,11.45
2023-05-04T20:18:10.613Z,11.43
2023-05-04T20:20:37.636Z,12.95
2023-05-04T20:23:04.554Z,13.85
2023-05-04T20:25:31.879Z,9.27
2023-05-04T20:27:58.915Z,13.32
2023-05-04T20:30:28.999Z,16.58
2023-05-04T20:32:56.128Z,13.60
2023-05-04T20:35:23.045Z,13.82
2023-05-04T20:37:50.130Z,10.45
2023-05-04T20:40:17.301Z,12.13
2023-05-04T20:42:44.400Z,11.18
2023-05-04T20:45:11.414Z,13.63
2023-05-04T20:47:38.589Z,10.10
2023-05-04T20:50:07.986Z,10.75
2023-05-04T20:52:35.174Z,10.98
2023-05-04T20:55:02.214Z,12.23
2023-05-04T20:57:29.139Z,9.45
2023-05-04T20:59:56.605Z,12.85
2023-05-04T21:02:23.605Z,10.27
2023-05-04T21:04:50.860Z,13.98
2023-05-04T21:07:18.704Z,12.35
2023-05-04T21:09:45.732Z,11.55
2023-05-04T21:12:12.762Z,12.45
2023-05-04T21:14:39.686Z,17.00
2023-05-04T21:17:07.406Z,12.15
2023-05-04T21:19:36.330Z,10.90
2023-05-04T21:22:03.301Z,11.52
2023-05-04T21:24:32.171Z,13.27
2023-05-04T21:26:59.940Z,10.68
2023-05-04T21:29:26.878Z,12.48
2023-05-04T21:31:57.486Z,11.07
2023-05-04T21:34:24.985Z,12.07
2023-05-04T21:36:51.893Z,15.70
2023-05-04T21:39:18.911Z,12.25
2023-05-04T21:41:45.940Z,13.80
2023-05-04T21:44:13.094Z,11.52
2023-05-04T21:46:40.080Z,14.20
2023-05-04T21:49:07.953Z,11.35
2023-05-04T21:51:34.934Z,12.38
2023-05-04T21:54:02.246Z,11.05
2023-05-04T21:56:31.925Z,11.40
2023-05-04T21:58:58.961Z,12.68
2023-05-04T22:01:27.060Z,11.80
2023-05-04T22:03:54.111Z,16.77
2023-05-04T22:06:22.182Z,12.05
2023-05-04T22:08:49.350Z,13.18
2023-05-04T22:11:16.405Z,13.93
2023-05-04T22:13:43.267Z,11.27
2023-05-04T22:16:10.199Z,12.93
2023-05-04T22:18:37.491Z,15.85
2023-05-04T22:21:04.589Z,12.68
2023-05-04T22:23:31.680Z,11.80
2023-05-04T22:25:58.707Z,13.43
2023-05-04T22:28:26.449Z,14.60
2023-05-04T22:30:53.462Z,12.60
2023-05-04T22:33:20.470Z,11.95
2023-05-04T22:35:47.413Z,13.18
2023-05-04T22:38:14.692Z,14.93
2023-05-04T22:40:43.124Z,13.50
2023-05-04T22:43:10.303Z,12.80
2023-05-04T22:45:38.369Z,12.68
2023-05-04T22:48:05.369Z,11.77
2023-05-04T22:50:32.375Z,17.30
2023-05-04T22:52:59.474Z,13.93
2023-05-04T22:55:27.071Z,14.48
2023-05-04T22:57:54.216Z,15.57
2023-05-04T23:00:21.336Z,16.35
2023-05-04T23:02:48.422Z,13.45
2023-05-04T23:05:15.791Z,13.07
2023-05-04T23:07:42.742Z,12.93
2023-05-04T23:10:10.473Z,13.20
2023-05-04T23:12:37.998Z,14.10
2023-05-04T23:15:06.621Z,16.48
2023-05-04T23:17:34.349Z,14.75
2023-05-04T23:20:01.484Z,15.15
2023-05-04T23:22:28.378Z,13.98
2023-05-04T23:24:58.994Z,15.38
2023-05-04T23:27:26.939Z,13.73
2023-05-04T23:29:53.994Z,17.38
2023-05-04T23:32:20.906Z,13.40
2023-05-04T23:34:47.837Z,15.93
2023-05-04T23:37:16.924Z,17.50
2023-05-04T23:39:47.032Z,13.75
2023-05-04T23:42:14.084Z,14.98
2023-05-04T23:44:41.068Z,16.65
2023-05-04T23:47:08.029Z,14.32
2023-05-04T23:49:34.956Z,13.85
2023-05-04T23:52:01.979Z,13.82
2023-05-04T23:54:28.895Z,16.30
2023-05-04T23:56:55.865Z,13.52
2023-05-04T23:59:22.833Z,17.17
